Portada
METAR-TAF:

METAR-TAF

Aeroports :

Armenia, Colòmbia

latitud: 04-30N, longitud: 075-43W, altitud: 1204 m

Observació

L'informe es va fer fa 32 minuts, a les 01:00 UTC
Vent calma
Temperatura 21°C
Humitat 88%
Pressió 1016 hPa
Visibilitat 10 km o més
Núvols disperses a una alçada de 2200 ft

METAR: SKAR 170100Z 00000KT 9999 SCT022 21/19 A3001

Hora: 20:32 (01:32 UTC)


TAF: manca

Observacions i pronòstics meteorològics de més de 4000 aeroports (METAR i TAF).

Les estacions disponibles són els punts grocs i vermells al mapa.

Posi el ratolí al punt desitjat per veure el nom de l'estació.

Feu clic per veure les observacions i els pronòstics meteorològics.

Per canviar el mapa: feu clic els botons verds amb una creu de color negre per apropar; al botó verd amb un guió per allunyar la imatge; o en les fletxes verdes per a mapes adjacents.


METAR-TAF: